createdAt,value
2022-12-03T00:00:20.755Z,12.50
2022-12-03T00:02:49.816Z,11.63
2022-12-03T00:05:19.022Z,10.03
2022-12-03T00:07:47.009Z,10.73
2022-12-03T00:10:15.483Z,10.60
2022-12-03T00:12:43.389Z,13.70
2022-12-03T00:15:13.188Z,16.50
2022-12-03T00:17:41.151Z,11.33
2022-12-03T00:20:10.241Z,9.20
2022-12-03T00:22:38.152Z,9.53
2022-12-03T00:25:06.935Z,10.13
2022-12-03T00:27:34.830Z,10.57
2022-12-03T00:30:03.025Z,10.73
2022-12-03T00:32:32.259Z,10.50
2022-12-03T00:35:00.252Z,10.93
2022-12-03T00:37:28.110Z,12.87
2022-12-03T00:39:56.057Z,10.13
2022-12-03T00:42:23.975Z,9.53
2022-12-03T00:44:52.137Z,10.33
2022-12-03T00:47:20.205Z,11.30
2022-12-03T00:49:49.382Z,9.67
2022-12-03T00:52:17.306Z,9.93
2022-12-03T00:54:45.402Z,9.97
2022-12-03T00:57:13.336Z,10.57
2022-12-03T00:59:41.282Z,12.93
2022-12-03T01:02:09.345Z,11.63
2022-12-03T01:04:37.571Z,11.53
2022-12-03T01:07:06.998Z,13.47
2022-12-03T01:09:34.968Z,10.40
2022-12-03T01:12:02.866Z,11.20
2022-12-03T01:14:30.737Z,10.43
2022-12-03T01:16:58.800Z,11.47
2022-12-03T01:19:26.853Z,10.17
2022-12-03T01:21:55.525Z,11.93
2022-12-03T01:24:24.780Z,14.03
2022-12-03T01:26:52.662Z,16.23
2022-12-03T01:29:20.602Z,12.93
2022-12-03T01:32:06.020Z,10.30
2022-12-03T01:34:34.195Z,11.73
2022-12-03T01:37:02.074Z,11.47
2022-12-03T01:39:31.503Z,13.03
2022-12-03T01:41:59.824Z,10.23
2022-12-03T01:44:31.018Z,13.33
2022-12-03T01:47:02.269Z,11.87
2022-12-03T01:49:35.197Z,10.20
2022-12-03T01:52:03.170Z,10.70
2022-12-03T01:54:37.840Z,14.47
2022-12-03T01:57:06.596Z,13.33
2022-12-03T01:59:38.623Z,13.37
2022-12-03T02:02:13.720Z,16.13
2022-12-03T02:04:41.736Z,10.30
2022-12-03T02:07:25.006Z,11.37
2022-12-03T02:09:56.844Z,13.27
2022-12-03T02:12:30.435Z,9.87
2022-12-03T02:14:58.574Z,12.00
2022-12-03T02:17:29.091Z,10.33
2022-12-03T02:19:58.019Z,12.00
2022-12-03T02:22:34.291Z,13.90
2022-12-03T02:25:14.648Z,12.47
2022-12-03T02:27:42.893Z,14.27
2022-12-03T02:30:14.891Z,10.43
2022-12-03T02:32:42.875Z,14.70
2022-12-03T02:35:15.627Z,15.30
2022-12-03T02:37:45.146Z,15.53
2022-12-03T02:40:19.439Z,14.77
2022-12-03T02:42:51.266Z,15.10
2022-12-03T02:45:22.583Z,13.77
2022-12-03T02:47:53.461Z,12.73
2022-12-03T02:50:23.893Z,13.87
2022-12-03T02:52:55.163Z,14.77
2022-12-03T02:55:25.374Z,12.73
2022-12-03T02:57:54.066Z,14.87
2022-12-03T03:00:23.447Z,13.47
2022-12-03T03:02:51.622Z,15.73
2022-12-03T03:05:22.175Z,14.63
2022-12-03T03:07:51.389Z,11.47
2022-12-03T03:10:23.666Z,13.67
2022-12-03T03:12:55.059Z,13.30
2022-12-03T03:15:23.495Z,13.60
2022-12-03T03:17:51.543Z,16.83
2022-12-03T03:20:20.637Z,11.40
2022-12-03T03:22:48.577Z,13.80
2022-12-03T03:25:20.992Z,14.37
2022-12-03T03:27:50.021Z,11.80
2022-12-03T03:30:19.361Z,13.27
2022-12-03T03:32:47.292Z,12.77
2022-12-03T03:35:15.304Z,14.83
2022-12-03T03:37:43.654Z,14.63
2022-12-03T03:40:12.610Z,13.93
2022-12-03T03:42:40.701Z,13.03
2022-12-03T03:45:10.253Z,13.43
2022-12-03T03:47:40.394Z,13.00
2022-12-03T03:50:11.396Z,14.60
2022-12-03T03:52:40.124Z,14.90
2022-12-03T03:55:11.111Z,15.80
2022-12-03T03:57:40.366Z,12.90
2022-12-03T04:00:10.137Z,14.73
2022-12-03T04:02:39.804Z,16.10
2022-12-03T04:05:08.852Z,15.83
2022-12-03T04:07:36.790Z,14.70
2022-12-03T04:10:25.566Z,16.23
2022-12-03T04:12:58.437Z,13.13
2022-12-03T04:15:27.071Z,14.20
2022-12-03T04:18:13.807Z,16.40
2022-12-03T04:20:41.983Z,14.10
2022-12-03T04:23:09.096Z,17.13
2022-12-03T04:25:54.430Z,18.07
2022-12-03T04:28:39.855Z,15.53
2022-12-03T04:31:21.748Z,20.37
2022-12-03T04:34:08.268Z,14.40
2022-12-03T04:36:36.183Z,18.00
2022-12-03T04:39:04.451Z,16.97
2022-12-03T04:41:32.437Z,15.33
2022-12-03T04:44:17.829Z,16.97
2022-12-03T04:46:45.759Z,18.10
2022-12-03T04:49:14.973Z,16.73
2022-12-03T04:51:42.807Z,19.90
2022-12-03T04:54:10.672Z,19.37
2022-12-03T04:56:38.526Z,16.93
2022-12-03T04:59:10.030Z,16.03
2022-12-03T05:01:40.669Z,17.97
2022-12-03T05:04:08.685Z,19.70
2022-12-03T05:06:38.024Z,17.67
2022-12-03T05:09:06.312Z,18.47
2022-12-03T05:11:34.277Z,20.30
2022-12-03T05:14:02.185Z,20.10
2022-12-03T05:16:30.484Z,17.43
2022-12-03T05:18:58.613Z,19.23
2022-12-03T05:21:26.657Z,20.13
2022-12-03T05:23:56.196Z,22.50
2022-12-03T05:26:24.148Z,18.60
2022-12-03T05:28:52.008Z,16.57
2022-12-03T05:31:20.102Z,17.83
2022-12-03T05:33:48.084Z,23.93
2022-12-03T05:36:16.325Z,21.30
2022-12-03T05:38:44.299Z,19.33
2022-12-03T05:41:30.912Z,17.70
2022-12-03T05:43:58.790Z,22.53
2022-12-03T05:46:26.769Z,18.63
2022-12-03T05:48:55.011Z,21.27
2022-12-03T05:51:22.930Z,20.20
2022-12-03T05:53:51.208Z,18.03
2022-12-03T05:56:20.552Z,21.97
2022-12-03T05:58:48.377Z,21.90
2022-12-03T06:01:16.577Z,22.07
2022-12-03T06:03:44.535Z,18.57
2022-12-03T06:06:12.531Z,21.07
2022-12-03T06:08:40.628Z,24.00
2022-12-03T06:11:08.678Z,25.37
2022-12-03T06:13:53.390Z,18.67
2022-12-03T06:16:21.314Z,20.13
2022-12-03T06:18:49.237Z,19.17
2022-12-03T06:21:17.201Z,22.27
2022-12-03T06:23:45.396Z,29.17
2022-12-03T06:26:14.004Z,24.03
2022-12-03T06:28:46.372Z,20.50
2022-12-03T06:31:15.915Z,19.33
2022-12-03T06:33:43.864Z,19.17
2022-12-03T06:36:11.756Z,27.37
2022-12-03T06:38:39.597Z,24.37
2022-12-03T06:41:07.677Z,21.33
2022-12-03T06:43:35.513Z,20.60
2022-12-03T06:46:03.469Z,22.90
2022-12-03T06:48:32.824Z,20.93
2022-12-03T06:51:00.700Z,23.23
2022-12-03T06:53:28.536Z,24.57
2022-12-03T06:55:56.672Z,21.83
2022-12-03T06:58:24.580Z,20.00
2022-12-03T07:00:52.444Z,22.43
2022-12-03T07:03:20.350Z,19.83
2022-12-03T07:05:49.679Z,20.17
2022-12-03T07:08:17.696Z,20.67
2022-12-03T07:10:45.669Z,22.87
2022-12-03T07:13:13.552Z,24.93
2022-12-03T07:15:41.495Z,23.00
2022-12-03T07:18:09.717Z,23.93
2022-12-03T07:20:37.779Z,28.93
2022-12-03T07:23:07.070Z,21.90
2022-12-03T07:25:35.072Z,24.83
2022-12-03T07:28:02.938Z,22.50
2022-12-03T07:30:30.886Z,24.27
2022-12-03T07:32:58.808Z,22.07
2022-12-03T07:35:26.681Z,26.63
2022-12-03T07:37:54.553Z,18.77
2022-12-03T07:40:23.872Z,23.73
2022-12-03T07:42:51.765Z,21.63
2022-12-03T07:45:19.635Z,22.23
2022-12-03T07:47:47.687Z,20.43
2022-12-03T07:50:15.708Z,21.37
2022-12-03T07:52:43.577Z,21.50
2022-12-03T07:55:13.286Z,18.43
2022-12-03T07:57:42.644Z,19.07
2022-12-03T08:00:12.979Z,22.13
2022-12-03T08:02:40.887Z,20.00
2022-12-03T08:05:09.690Z,20.03
2022-12-03T08:07:37.694Z,20.80
2022-12-03T08:10:06.615Z,20.67
2022-12-03T08:12:40.928Z,18.40
2022-12-03T08:15:16.174Z,17.30
2022-12-03T08:17:45.521Z,16.67
2022-12-03T08:20:18.355Z,16.20
2022-12-03T08:22:48.212Z,16.57
2022-12-03T08:25:20.908Z,14.93
2022-12-03T08:27:48.850Z,21.60
2022-12-03T08:30:19.423Z,16.20
2022-12-03T08:32:48.419Z,18.10
2022-12-03T08:35:23.045Z,14.97
2022-12-03T08:37:56.332Z,15.47
2022-12-03T08:40:34.525Z,20.50
2022-12-03T08:43:02.597Z,19.33
2022-12-03T08:45:40.617Z,16.33
2022-12-03T08:48:28.515Z,16.43
2022-12-03T08:50:58.102Z,14.83
2022-12-03T08:53:31.877Z,19.57
2022-12-03T08:56:01.016Z,16.73
2022-12-03T08:58:43.894Z,17.30
2022-12-03T09:01:33.345Z,16.80
2022-12-03T09:04:17.441Z,18.70
2022-12-03T09:06:45.499Z,16.00
2022-12-03T09:09:13.379Z,13.67
2022-12-03T09:11:43.244Z,15.87
2022-12-03T09:14:16.708Z,19.03
2022-12-03T09:16:47.991Z,18.40
2022-12-03T09:19:16.302Z,15.17
2022-12-03T09:21:44.135Z,18.67
2022-12-03T09:24:12.048Z,17.73
2022-12-03T09:26:40.028Z,15.77
2022-12-03T09:29:12.142Z,16.30
2022-12-03T09:31:40.977Z,14.40
2022-12-03T09:34:11.017Z,14.97
2022-12-03T09:36:38.981Z,17.30
2022-12-03T09:39:06.910Z,19.50
2022-12-03T09:41:34.881Z,19.00
2022-12-03T09:44:04.887Z,15.47
2022-12-03T09:46:34.968Z,18.53
2022-12-03T09:49:03.183Z,18.10
2022-12-03T09:51:35.715Z,17.33
2022-12-03T09:54:05.768Z,19.57
2022-12-03T09:56:36.029Z,17.03
2022-12-03T09:59:06.967Z,16.70
2022-12-03T10:01:34.996Z,16.40
2022-12-03T10:04:03.295Z,15.57
2022-12-03T10:06:32.827Z,19.20
2022-12-03T10:09:00.948Z,15.67
2022-12-03T10:11:30.950Z,14.57
2022-12-03T10:13:59.822Z,12.97
2022-12-03T10:16:30.467Z,18.33
2022-12-03T10:19:01.600Z,14.20
2022-12-03T10:21:33.397Z,14.40
2022-12-03T10:24:21.301Z,16.87
2022-12-03T10:26:50.928Z,15.23
2022-12-03T10:29:21.644Z,19.77
2022-12-03T10:31:57.180Z,14.00
2022-12-03T10:34:26.630Z,15.23
2022-12-03T10:37:11.694Z,13.17
2022-12-03T10:39:56.385Z,9.83
2022-12-03T10:42:25.823Z,10.33
2022-12-03T10:45:09.299Z,10.73
2022-12-03T10:47:37.344Z,11.40
2022-12-03T10:50:07.920Z,12.53
2022-12-03T10:52:37.345Z,13.63
2022-12-03T10:55:05.650Z,11.30
2022-12-03T10:57:33.895Z,13.20
2022-12-03T11:00:01.867Z,13.20
2022-12-03T11:02:29.858Z,12.93
2022-12-03T11:04:57.784Z,11.40
2022-12-03T11:07:27.108Z,13.37
2022-12-03T11:09:58.723Z,15.30
2022-12-03T11:12:28.895Z,15.47
2022-12-03T11:15:07.253Z,13.43
2022-12-03T11:17:55.970Z,11.73
2022-12-03T11:21:06.397Z,12.97
2022-12-03T11:24:20.156Z,11.97
2022-12-03T11:27:09.025Z,13.70
2022-12-03T11:29:58.612Z,13.60
2022-12-03T11:33:06.399Z,12.57
2022-12-03T11:36:15.300Z,9.00
2022-12-03T11:38:52.977Z,14.73
2022-12-03T11:41:24.676Z,13.83
2022-12-03T11:44:26.255Z,12.17
2022-12-03T11:46:56.864Z,13.43
2022-12-03T11:49:32.883Z,13.20
2022-12-03T11:52:03.436Z,14.67
2022-12-03T11:54:35.360Z,13.10
2022-12-03T11:57:03.755Z,15.57
2022-12-03T11:59:31.647Z,14.20
2022-12-03T12:02:00.980Z,12.90
2022-12-03T12:04:32.347Z,14.73
2022-12-03T12:07:00.932Z,14.50
2022-12-03T12:09:52.022Z,14.97
2022-12-03T12:12:28.055Z,15.87
2022-12-03T12:14:56.273Z,15.67
2022-12-03T12:17:34.728Z,19.40
2022-12-03T12:20:14.920Z,18.10
2022-12-03T12:22:42.862Z,13.57
2022-12-03T12:25:38.723Z,14.63
2022-12-03T12:28:06.973Z,16.57
2022-12-03T12:30:35.298Z,13.87
2022-12-03T12:33:19.734Z,16.40
2022-12-03T12:35:47.770Z,20.23
2022-12-03T12:38:18.719Z,16.27
2022-12-03T12:40:49.158Z,19.57
2022-12-03T12:43:25.780Z,15.73
2022-12-03T12:45:56.038Z,14.83
2022-12-03T12:48:27.344Z,13.47
2022-12-03T12:51:01.540Z,18.53
2022-12-03T12:53:31.963Z,13.57
2022-12-03T12:56:02.168Z,16.87
2022-12-03T12:58:33.288Z,14.67
2022-12-03T13:01:04.918Z,14.47
2022-12-03T13:03:36.137Z,16.17
2022-12-03T13:06:04.543Z,15.60
2022-12-03T13:08:34.696Z,16.77
2022-12-03T13:11:03.727Z,15.30
2022-12-03T13:13:43.104Z,15.10
2022-12-03T13:16:18.388Z,15.80
2022-12-03T13:18:50.590Z,19.87
2022-12-03T13:21:37.805Z,18.83
2022-12-03T13:24:28.099Z,17.63
2022-12-03T13:26:56.265Z,17.93
2022-12-03T13:29:24.939Z,16.23
2022-12-03T13:31:55.147Z,15.97
2022-12-03T13:34:26.042Z,13.57
2022-12-03T13:36:58.094Z,12.80
2022-12-03T13:39:31.777Z,13.97
2022-12-03T13:42:27.047Z,14.70
2022-12-03T13:44:55.413Z,15.60
2022-12-03T13:47:24.855Z,14.17
2022-12-03T13:49:57.754Z,16.13
2022-12-03T13:52:26.971Z,13.23
2022-12-03T13:54:57.020Z,15.60
2022-12-03T13:57:25.026Z,10.00
2022-12-03T13:59:53.122Z,14.73
2022-12-03T14:02:21.585Z,13.63
2022-12-03T14:04:49.610Z,12.90
2022-12-03T14:07:18.903Z,15.07
2022-12-03T14:09:47.002Z,11.03
2022-12-03T14:12:26.861Z,10.67
2022-12-03T14:14:54.804Z,10.23
2022-12-03T14:17:22.729Z,12.37
2022-12-03T14:19:50.784Z,11.23
2022-12-03T14:22:23.264Z,10.67
2022-12-03T14:24:51.229Z,9.63
2022-12-03T14:27:19.234Z,13.47
2022-12-03T14:29:47.372Z,13.37
2022-12-03T14:32:16.666Z,9.43
2022-12-03T14:34:44.697Z,14.53
2022-12-03T14:37:12.606Z,10.87
2022-12-03T14:39:42.272Z,12.87
2022-12-03T14:42:16.705Z,16.00
2022-12-03T14:44:46.147Z,10.50
2022-12-03T14:47:14.551Z,10.53
2022-12-03T14:49:42.474Z,14.47
2022-12-03T14:52:12.389Z,13.70
2022-12-03T14:54:43.098Z,13.10
2022-12-03T14:57:15.466Z,11.30
2022-12-03T14:59:45.080Z,11.93
2022-12-03T15:02:13.703Z,10.40
2022-12-03T15:04:42.605Z,13.17
2022-12-03T15:07:10.957Z,11.50
2022-12-03T15:09:38.838Z,15.30
2022-12-03T15:12:11.061Z,15.97
2022-12-03T15:14:39.021Z,18.53
2022-12-03T15:17:07.042Z,13.93
2022-12-03T15:19:35.121Z,11.20
2022-12-03T15:22:03.147Z,10.17
2022-12-03T15:24:31.159Z,12.07
2022-12-03T15:26:59.155Z,11.93
2022-12-03T15:29:28.392Z,14.30
2022-12-03T15:31:56.385Z,11.33
2022-12-03T15:34:24.432Z,14.93
2022-12-03T15:36:53.148Z,10.97
2022-12-03T15:39:21.130Z,10.87
2022-12-03T15:41:49.628Z,13.07
2022-12-03T15:44:17.615Z,13.13
2022-12-03T15:46:46.947Z,11.17
2022-12-03T15:49:15.005Z,10.63
2022-12-03T15:51:42.991Z,11.60
2022-12-03T15:54:12.118Z,13.23
2022-12-03T15:56:40.138Z,13.67
2022-12-03T15:59:08.052Z,12.30
2022-12-03T16:01:36.008Z,11.23
2022-12-03T16:04:05.403Z,10.70
2022-12-03T16:06:33.278Z,10.43
2022-12-03T16:09:01.129Z,10.57
2022-12-03T16:11:29.006Z,11.93
2022-12-03T16:13:56.939Z,11.97
2022-12-03T16:16:25.107Z,14.20
2022-12-03T16:18:53.065Z,13.60
2022-12-03T16:21:26.649Z,12.60
2022-12-03T16:23:55.210Z,10.47
2022-12-03T16:26:23.995Z,9.97
2022-12-03T16:28:51.873Z,11.67
2022-12-03T16:31:20.482Z,11.10
2022-12-03T16:33:48.634Z,13.17
2022-12-03T16:36:16.772Z,12.50
2022-12-03T16:38:46.245Z,13.80
2022-12-03T16:41:14.158Z,12.70
2022-12-03T16:43:45.371Z,11.17
2022-12-03T16:46:25.772Z,11.27
2022-12-03T16:48:55.363Z,11.40
2022-12-03T16:51:23.485Z,12.87
2022-12-03T16:53:53.420Z,12.83
2022-12-03T16:56:21.746Z,11.40
2022-12-03T16:58:49.664Z,10.27
2022-12-03T17:01:18.394Z,14.63
2022-12-03T17:03:46.324Z,10.27
2022-12-03T17:06:14.234Z,11.50
2022-12-03T17:08:47.268Z,12.77
2022-12-03T17:11:18.819Z,11.53
2022-12-03T17:13:46.762Z,12.87
2022-12-03T17:16:14.890Z,16.30
2022-12-03T17:18:45.527Z,13.50
2022-12-03T17:21:13.482Z,12.13
2022-12-03T17:23:41.430Z,12.97
2022-12-03T17:26:09.398Z,12.77
2022-12-03T17:28:38.601Z,13.70
2022-12-03T17:31:06.962Z,14.60
2022-12-03T17:33:34.924Z,17.07
2022-12-03T17:36:03.020Z,12.83
2022-12-03T17:38:37.176Z,15.63
2022-12-03T17:41:08.130Z,16.33
2022-12-03T17:43:36.008Z,17.13
2022-12-03T17:46:06.747Z,19.77
2022-12-03T17:48:35.376Z,13.77
2022-12-03T17:51:03.433Z,16.87
2022-12-03T17:53:31.403Z,15.90
2022-12-03T17:56:01.010Z,19.10
2022-12-03T17:58:28.933Z,17.10
2022-12-03T18:01:02.140Z,13.83
2022-12-03T18:03:32.396Z,16.77
2022-12-03T18:06:00.356Z,17.27
2022-12-03T18:08:28.261Z,17.33
2022-12-03T18:10:56.276Z,15.93
2022-12-03T18:13:24.207Z,18.37
2022-12-03T18:15:52.164Z,16.33
2022-12-03T18:18:20.549Z,15.23
2022-12-03T18:20:49.851Z,17.30
2022-12-03T18:23:17.768Z,20.30
2022-12-03T18:25:45.684Z,17.40
2022-12-03T18:28:13.619Z,17.00
2022-12-03T18:30:41.622Z,13.83
2022-12-03T18:33:09.572Z,18.67
2022-12-03T18:35:37.718Z,17.13
2022-12-03T18:38:06.981Z,18.93
2022-12-03T18:40:35.071Z,17.20
2022-12-03T18:43:03.130Z,18.33
2022-12-03T18:45:31.060Z,16.70
2022-12-03T18:47:59.024Z,20.10
2022-12-03T18:50:26.949Z,18.10
2022-12-03T18:52:54.899Z,16.57
2022-12-03T18:55:24.263Z,19.83
2022-12-03T18:57:52.209Z,15.87
2022-12-03T19:00:20.660Z,16.97
2022-12-03T19:03:04.635Z,18.50
2022-12-03T19:05:35.055Z,18.17
2022-12-03T19:08:03.598Z,21.27
2022-12-03T19:10:33.118Z,21.20
2022-12-03T19:13:01.024Z,17.97
2022-12-03T19:15:29.092Z,22.40
2022-12-03T19:17:57.084Z,19.67
2022-12-03T19:20:25.025Z,20.43
2022-12-03T19:22:53.005Z,17.67
2022-12-03T19:25:20.961Z,18.13
2022-12-03T19:27:50.828Z,21.37
2022-12-03T19:30:19.128Z,17.13
2022-12-03T19:32:48.687Z,16.17
2022-12-03T19:35:16.725Z,19.23
2022-12-03T19:37:46.343Z,22.80
2022-12-03T19:40:14.822Z,17.73
2022-12-03T19:42:43.239Z,13.67
2022-12-03T19:45:12.866Z,20.43
2022-12-03T19:47:40.833Z,16.80
2022-12-03T19:50:10.176Z,18.83
2022-12-03T19:52:38.132Z,19.43
2022-12-03T19:55:06.653Z,17.07
2022-12-03T19:57:34.622Z,17.90
2022-12-03T20:00:02.767Z,20.50
2022-12-03T20:02:32.130Z,19.07
2022-12-03T20:05:00.143Z,17.93
2022-12-03T20:07:28.915Z,19.17
2022-12-03T20:09:57.448Z,19.17
2022-12-03T20:12:25.573Z,15.73
2022-12-03T20:14:53.505Z,17.87
2022-12-03T20:17:21.505Z,18.03
2022-12-03T20:19:51.399Z,19.60
2022-12-03T20:22:19.338Z,17.90
2022-12-03T20:24:47.519Z,19.20
2022-12-03T20:27:18.310Z,17.23
2022-12-03T20:29:50.551Z,19.37
2022-12-03T20:32:18.668Z,23.10
2022-12-03T20:34:46.752Z,18.73
2022-12-03T20:37:16.091Z,18.07
2022-12-03T20:39:44.123Z,19.60
2022-12-03T20:42:12.312Z,20.70
2022-12-03T20:44:40.212Z,18.27
2022-12-03T20:47:08.083Z,23.20
2022-12-03T20:49:36.579Z,18.03
2022-12-03T20:52:04.916Z,19.53
2022-12-03T20:54:34.248Z,19.57
2022-12-03T20:57:02.189Z,16.80
2022-12-03T20:59:30.061Z,19.57
2022-12-03T21:01:58.150Z,17.90
2022-12-03T21:04:26.160Z,17.57
2022-12-03T21:06:54.059Z,17.80
2022-12-03T21:09:21.912Z,16.53
2022-12-03T21:11:51.194Z,17.00
2022-12-03T21:14:19.139Z,16.73
2022-12-03T21:19:37.470Z,16.87
2022-12-03T21:22:05.361Z,16.00
2022-12-03T21:24:33.242Z,20.07
2022-12-03T21:27:02.612Z,17.93
2022-12-03T21:29:30.529Z,17.83
2022-12-03T21:31:58.369Z,18.77
2022-12-03T21:34:30.096Z,15.00
2022-12-03T21:37:02.234Z,17.60
2022-12-03T21:39:30.123Z,18.77
2022-12-03T21:42:34.882Z,18.50
2022-12-03T21:44:47.482Z,21.10
2022-12-03T21:47:15.473Z,17.10
2022-12-03T21:49:43.344Z,14.03
2022-12-03T21:52:11.501Z,19.73
2022-12-03T21:54:39.463Z,15.83
2022-12-03T21:57:07.370Z,14.67
2022-12-03T21:59:35.287Z,17.40
2022-12-03T22:02:04.664Z,17.73
2022-12-03T22:04:32.607Z,16.80
2022-12-03T22:07:00.580Z,17.63
2022-12-03T22:09:28.511Z,18.90
2022-12-03T22:11:59.289Z,20.10
2022-12-03T22:14:27.502Z,15.50
2022-12-03T22:16:55.465Z,16.70
2022-12-03T22:19:25.464Z,15.40
2022-12-03T22:21:53.461Z,16.47
2022-12-03T22:24:21.390Z,18.47
2022-12-03T22:26:49.321Z,16.97
2022-12-03T22:29:17.256Z,15.00
2022-12-03T22:31:45.525Z,15.93
2022-12-03T22:34:13.499Z,17.83
2022-12-03T22:36:42.758Z,15.60
2022-12-03T22:39:10.701Z,13.27
2022-12-03T22:41:38.591Z,16.70
2022-12-03T22:44:06.638Z,17.30
2022-12-03T22:46:34.653Z,16.67
2022-12-03T22:49:06.978Z,15.77
2022-12-03T22:51:36.241Z,14.47
2022-12-03T22:54:05.857Z,16.33
2022-12-03T22:56:33.930Z,15.03
2022-12-03T22:59:01.865Z,13.53
2022-12-03T23:01:31.965Z,14.67
2022-12-03T23:04:00.949Z,14.60
2022-12-03T23:06:29.746Z,14.47
2022-12-03T23:08:58.346Z,14.77
2022-12-03T23:11:28.173Z,14.70
2022-12-03T23:13:56.058Z,15.03
2022-12-03T23:16:27.089Z,15.50
2022-12-03T23:18:55.401Z,15.87
2022-12-03T23:21:29.830Z,12.97
2022-12-03T23:23:58.336Z,15.60
2022-12-03T23:26:28.197Z,11.93
2022-12-03T23:28:56.233Z,13.60
2022-12-03T23:31:26.374Z,15.70
2022-12-03T23:33:55.409Z,14.80
2022-12-03T23:36:25.224Z,14.63
2022-12-03T23:38:53.197Z,14.80
2022-12-03T23:41:23.238Z,13.97
2022-12-03T23:43:52.852Z,15.77
2022-12-03T23:46:22.530Z,15.80
2022-12-03T23:48:50.853Z,16.60
2022-12-03T23:51:20.566Z,16.53
2022-12-03T23:53:48.950Z,14.73
2022-12-03T23:56:20.472Z,20.43
2022-12-03T23:58:48.504Z,12.90
